createdAt,value
2022-08-05T00:02:23.585Z,28.53
2022-08-05T00:04:55.231Z,10.70
2022-08-05T00:07:59.798Z,9.03
2022-08-05T00:10:11.519Z,10.10
2022-08-05T00:12:48.521Z,16.70
2022-08-05T00:15:56.349Z,8.50
2022-08-05T00:18:21.654Z,8.47
2022-08-05T00:20:50.058Z,9.53
2022-08-05T00:23:17.710Z,7.60
2022-08-05T00:26:05.601Z,7.27
2022-08-05T00:28:33.762Z,8.13
2022-08-05T00:31:04.442Z,7.30
2022-08-05T00:34:56.931Z,7.37
2022-08-05T00:37:09.766Z,7.93
2022-08-05T00:39:13.813Z,7.27
2022-08-05T00:41:51.838Z,7.23
2022-08-05T00:44:20.809Z,7.93
2022-08-05T00:46:54.308Z,8.50
2022-08-05T00:49:32.681Z,8.37
2022-08-05T00:52:00.903Z,7.63
2022-08-05T00:54:30.215Z,7.90
2022-08-05T00:56:58.169Z,9.00
2022-08-05T00:59:25.814Z,8.50
2022-08-05T01:02:03.762Z,8.50
2022-08-05T01:04:31.556Z,8.73
2022-08-05T01:06:59.666Z,9.73
2022-08-05T01:09:30.389Z,8.57
2022-08-05T01:12:09.124Z,8.67
2022-08-05T01:14:41.500Z,8.23
2022-08-05T01:17:13.106Z,8.40
2022-08-05T01:20:01.614Z,9.47
2022-08-05T01:22:36.543Z,8.80
2022-08-05T01:25:13.753Z,9.80
2022-08-05T01:28:01.104Z,8.53
2022-08-05T01:30:33.737Z,9.37
2022-08-05T01:33:04.220Z,9.07
2022-08-05T01:35:51.657Z,8.83
2022-08-05T01:38:26.830Z,8.43
2022-08-05T01:40:56.436Z,9.27
2022-08-05T01:43:28.303Z,11.07
2022-08-05T01:45:57.072Z,9.43
2022-08-05T01:48:25.157Z,10.20
2022-08-05T01:50:53.661Z,9.53
2022-08-05T01:53:55.214Z,9.53
2022-08-05T01:56:11.632Z,10.13
2022-08-05T01:58:45.462Z,9.87
2022-08-05T02:01:24.638Z,9.77
2022-08-05T02:03:54.548Z,9.30
2022-08-05T02:06:37.720Z,10.70
2022-08-05T02:09:06.543Z,10.77
2022-08-05T02:11:42.246Z,9.53
2022-08-05T02:14:18.742Z,9.33
2022-08-05T02:16:53.133Z,9.50
2022-08-05T02:19:24.417Z,9.27
2022-08-05T02:21:59.526Z,9.00
2022-08-05T02:24:29.245Z,8.27
2022-08-05T02:26:57.789Z,8.70
2022-08-05T02:29:59.735Z,9.23
2022-08-05T02:32:19.851Z,9.20
2022-08-05T02:34:54.684Z,8.37
2022-08-05T02:37:23.708Z,8.77
2022-08-05T02:39:54.552Z,8.80
2022-08-05T02:42:27.362Z,8.33
2022-08-05T02:44:58.295Z,8.57
2022-08-05T02:47:58.747Z,8.90
2022-08-05T02:50:18.150Z,8.43
2022-08-05T02:52:46.614Z,8.00
2022-08-05T02:55:17.618Z,8.97
2022-08-05T02:58:12.114Z,9.80
2022-08-05T03:00:45.983Z,8.90
2022-08-05T03:03:15.622Z,8.80
2022-08-05T03:06:54.924Z,9.60
2022-08-05T03:08:33.849Z,8.60
2022-08-05T03:11:54.671Z,8.13
2022-08-05T03:13:51.915Z,8.03
2022-08-05T03:16:32.162Z,7.90
2022-08-05T03:19:00.865Z,8.10
2022-08-05T03:21:33.164Z,8.00
2022-08-05T03:24:10.391Z,7.80
2022-08-05T03:26:41.596Z,8.20
2022-08-05T03:29:13.562Z,7.57
2022-08-05T03:31:56.825Z,7.97
2022-08-05T03:34:28.428Z,7.90
2022-08-05T03:36:56.620Z,7.10
2022-08-05T03:39:26.768Z,7.50
2022-08-05T03:41:56.312Z,8.00
2022-08-05T03:44:24.328Z,8.20
2022-08-05T03:46:53.476Z,8.00
2022-08-05T03:49:24.221Z,7.43
2022-08-05T03:52:38.977Z,7.60
2022-08-05T03:55:51.034Z,7.63
2022-08-05T03:57:41.552Z,7.33
2022-08-05T04:00:12.280Z,7.50
2022-08-05T04:02:51.969Z,6.87
2022-08-05T04:05:27.886Z,7.20
2022-08-05T04:08:02.133Z,7.30
2022-08-05T04:10:37.627Z,7.30
2022-08-05T04:13:06.357Z,7.40
2022-08-05T04:15:36.029Z,7.30
2022-08-05T04:18:07.821Z,7.60
2022-08-05T04:20:37.612Z,7.17
2022-08-05T04:23:12.453Z,7.40
2022-08-05T04:25:56.856Z,7.23
2022-08-05T04:28:30.602Z,7.13
2022-08-05T04:31:01.173Z,7.60
2022-08-05T04:33:54.574Z,7.70
2022-08-05T04:36:49.413Z,6.93
2022-08-05T04:39:06.495Z,8.33
2022-08-05T04:41:37.707Z,7.30
2022-08-05T04:44:30.200Z,7.60
2022-08-05T04:46:59.050Z,6.80
2022-08-05T04:49:38.883Z,7.00
2022-08-05T04:52:16.555Z,7.57
2022-08-05T04:54:44.123Z,7.07
2022-08-05T04:57:11.782Z,7.20
2022-08-05T04:59:40.837Z,7.60
2022-08-05T05:02:36.595Z,6.97
2022-08-05T05:05:02.288Z,7.43
2022-08-05T05:07:32.591Z,6.90
2022-08-05T05:10:04.554Z,6.97
2022-08-05T05:12:32.351Z,7.20
2022-08-05T05:15:00.011Z,6.50
2022-08-05T05:17:56.511Z,6.80
2022-08-05T05:20:28.805Z,6.37
2022-08-05T05:22:57.010Z,6.80
2022-08-05T05:25:33.042Z,6.33
2022-08-05T05:28:09.532Z,6.70
2022-08-05T05:30:37.261Z,6.80
2022-08-05T05:33:16.278Z,6.57
2022-08-05T05:35:47.718Z,6.90
2022-08-05T05:38:22.649Z,6.80
2022-08-05T05:40:56.066Z,7.20
2022-08-05T05:43:57.048Z,6.63
2022-08-05T05:46:17.406Z,6.70
2022-08-05T05:48:48.312Z,9.30
2022-08-05T05:51:25.521Z,7.77
2022-08-05T05:53:58.850Z,6.90
2022-08-05T05:56:34.451Z,6.53
2022-08-05T05:59:05.283Z,6.03
2022-08-05T06:01:37.910Z,7.00
2022-08-05T06:04:07.177Z,7.00
2022-08-05T06:06:36.450Z,7.20
2022-08-05T06:09:04.313Z,7.10
2022-08-05T06:11:31.967Z,6.37
2022-08-05T06:14:00.431Z,6.57
2022-08-05T06:16:36.721Z,6.40
2022-08-05T06:19:07.533Z,6.73
2022-08-05T06:21:42.914Z,7.30
2022-08-05T06:24:17.794Z,7.57
2022-08-05T06:26:53.719Z,6.70
2022-08-05T06:29:49.680Z,5.80
2022-08-05T06:32:24.836Z,6.00
2022-08-05T06:34:56.860Z,5.97
2022-08-05T06:37:55.536Z,5.60
2022-08-05T06:40:18.154Z,5.23
2022-08-05T06:42:52.267Z,4.50
2022-08-05T06:45:44.967Z,4.60
2022-08-05T06:48:37.133Z,4.90
2022-08-05T06:50:57.382Z,4.37
2022-08-05T06:53:27.828Z,4.53
2022-08-05T06:55:56.986Z,4.67
2022-08-05T06:58:35.368Z,4.40
2022-08-05T07:01:05.307Z,4.57
2022-08-05T07:03:33.577Z,3.90
2022-08-05T07:06:06.266Z,4.17
2022-08-05T07:08:47.928Z,4.77
2022-08-05T07:11:22.139Z,4.30
2022-08-05T07:14:20.793Z,4.10
2022-08-05T07:17:58.405Z,4.03
2022-08-05T07:20:31.350Z,4.27
2022-08-05T07:22:36.224Z,4.10
2022-08-05T07:25:21.760Z,3.97
2022-08-05T07:27:58.444Z,4.00
2022-08-05T07:30:32.226Z,3.70
2022-08-05T07:33:01.576Z,3.70
2022-08-05T07:36:03.735Z,3.53
2022-08-05T07:38:32.780Z,3.30
2022-08-05T07:42:06.764Z,4.00
2022-08-05T07:43:52.323Z,4.20
2022-08-05T07:46:25.055Z,4.20
2022-08-05T07:49:02.310Z,4.00
2022-08-05T07:51:37.421Z,4.73
2022-08-05T07:54:09.858Z,4.20
2022-08-05T07:57:01.841Z,3.50
2022-08-05T07:59:38.380Z,3.90
2022-08-05T08:02:10.586Z,4.07
2022-08-05T08:04:45.564Z,4.10
2022-08-05T08:07:13.476Z,4.60
2022-08-05T08:09:41.114Z,4.00
2022-08-05T08:12:29.682Z,3.97
2022-08-05T08:15:02.287Z,4.10
2022-08-05T08:17:31.257Z,5.30
2022-08-05T08:20:43.507Z,4.33
2022-08-05T08:22:51.608Z,4.30
2022-08-05T08:25:26.416Z,4.50
2022-08-05T08:28:05.689Z,4.23
2022-08-05T08:30:47.723Z,3.83
2022-08-05T08:33:19.143Z,3.63
2022-08-05T08:35:52.852Z,3.63
2022-08-05T08:38:35.132Z,3.93
2022-08-05T08:41:06.209Z,3.73
2022-08-05T08:45:20.397Z,3.50
2022-08-05T08:46:25.121Z,3.77
2022-08-05T08:49:06.155Z,4.70
2022-08-05T08:52:03.433Z,4.60
2022-08-05T08:54:32.480Z,4.30
2022-08-05T08:57:00.333Z,4.60
2022-08-05T08:59:33.498Z,5.50
2022-08-05T09:02:02.666Z,4.20
2022-08-05T09:04:36.339Z,5.43
2022-08-05T09:07:28.407Z,5.40
2022-08-05T09:09:57.298Z,5.80
2022-08-05T09:12:27.086Z,4.90
2022-08-05T09:15:06.145Z,8.93
2022-08-05T09:17:40.478Z,10.07
2022-08-05T09:20:10.154Z,9.20
2022-08-05T09:23:04.954Z,4.87
2022-08-05T09:26:01.205Z,7.80
2022-08-05T09:28:23.533Z,4.77
2022-08-05T09:30:56.096Z,5.30
2022-08-05T09:33:24.527Z,4.80
2022-08-05T09:36:11.903Z,4.47
2022-08-05T09:38:56.570Z,4.47
2022-08-05T09:41:24.869Z,4.50
2022-08-05T09:43:53.655Z,4.00
2022-08-05T09:46:28.828Z,4.50
2022-08-05T09:49:07.738Z,3.60
2022-08-05T09:51:45.092Z,4.30
2022-08-05T09:54:21.157Z,4.10
2022-08-05T09:57:01.171Z,3.30
2022-08-05T09:59:29.475Z,3.87
2022-08-05T10:02:04.597Z,3.87
2022-08-05T10:04:38.493Z,5.23
2022-08-05T10:07:20.405Z,4.87
2022-08-05T10:10:14.140Z,5.33
2022-08-05T10:12:49.300Z,4.23
2022-08-05T10:15:19.999Z,5.10
2022-08-05T10:18:22.780Z,4.90
2022-08-05T10:20:51.318Z,4.80
2022-08-05T10:23:34.431Z,5.37
2022-08-05T10:26:14.473Z,6.20
2022-08-05T10:28:43.648Z,7.20
2022-08-05T10:32:47.177Z,5.50
2022-08-05T10:34:04.147Z,4.87
2022-08-05T10:36:36.629Z,4.50
2022-08-05T10:39:10.405Z,3.80
2022-08-05T10:41:47.380Z,4.37
2022-08-05T10:44:18.144Z,5.13
2022-08-05T10:46:46.247Z,4.77
2022-08-05T10:49:27.447Z,5.80
2022-08-05T10:52:05.233Z,6.30
2022-08-05T10:54:56.224Z,10.20
2022-08-05T10:57:31.792Z,5.60
2022-08-05T11:00:19.081Z,5.80
2022-08-05T11:03:23.347Z,7.03
2022-08-05T11:06:15.266Z,29.43
2022-08-05T11:09:03.782Z,31.17
2022-08-05T11:11:53.043Z,8.00
2022-08-05T11:14:56.303Z,7.43
2022-08-05T11:17:57.478Z,5.50
2022-08-05T11:20:37.477Z,4.80
2022-08-05T11:23:25.827Z,3.57
2022-08-05T11:26:08.652Z,3.97
2022-08-05T11:28:44.794Z,3.50
2022-08-05T11:31:57.073Z,3.17
2022-08-05T11:34:37.273Z,3.37
2022-08-05T11:37:06.309Z,3.50
2022-08-05T11:40:00.195Z,2.90
2022-08-05T11:42:32.728Z,3.20
2022-08-05T11:45:22.954Z,3.50
2022-08-05T11:47:55.162Z,3.27
2022-08-05T11:50:23.002Z,2.83
2022-08-05T11:52:57.609Z,3.13
2022-08-05T11:55:32.140Z,2.87
2022-08-05T11:58:09.328Z,2.80
2022-08-05T12:00:41.262Z,3.23
2022-08-05T12:03:29.064Z,3.20
2022-08-05T12:06:06.565Z,3.67
2022-08-05T12:08:50.062Z,3.70
2022-08-05T12:11:20.424Z,3.83
2022-08-05T12:13:58.765Z,3.60
2022-08-05T12:16:33.299Z,3.23
2022-08-05T12:19:08.402Z,3.27
2022-08-05T12:22:01.718Z,3.30
2022-08-05T12:24:29.989Z,3.30
2022-08-05T12:26:57.814Z,3.00
2022-08-05T12:29:29.201Z,2.70
2022-08-05T12:32:09.752Z,2.93
2022-08-05T12:34:38.600Z,3.80
2022-08-05T12:37:10.778Z,3.60
2022-08-05T12:39:51.172Z,3.40
2022-08-05T12:42:21.287Z,3.57
2022-08-05T12:45:02.139Z,3.70
2022-08-05T12:47:30.947Z,5.00
2022-08-05T12:50:03.936Z,4.17
2022-08-05T12:52:39.230Z,6.73
2022-08-05T12:55:17.404Z,4.17
2022-08-05T12:58:38.469Z,4.20
2022-08-05T13:02:03.285Z,3.30
2022-08-05T13:03:32.474Z,4.10
2022-08-05T13:06:02.178Z,4.50
2022-08-05T13:08:30.100Z,7.33
2022-08-05T13:11:00.483Z,5.20
2022-08-05T13:14:06.266Z,4.13
2022-08-05T13:16:19.479Z,4.57
2022-08-05T13:25:52.343Z,3.50
2022-08-05T13:28:21.790Z,3.37
2022-08-05T13:30:51.103Z,3.40
2022-08-05T13:34:20.218Z,3.50
2022-08-05T13:36:09.512Z,4.70
2022-08-05T13:38:38.461Z,3.50
2022-08-05T13:41:10.541Z,3.50
2022-08-05T13:43:45.033Z,3.33
2022-08-05T13:46:43.772Z,4.30
2022-08-05T13:49:11.823Z,3.73
2022-08-05T13:51:41.783Z,3.53
2022-08-05T13:54:15.388Z,4.03
2022-08-05T13:56:45.282Z,3.10
2022-08-05T13:59:21.066Z,3.77
2022-08-05T14:01:59.235Z,4.10
2022-08-05T14:04:49.996Z,3.77
2022-08-05T14:07:55.705Z,3.80
2022-08-05T14:10:08.402Z,3.93
2022-08-05T14:12:36.945Z,3.83
2022-08-05T14:16:03.938Z,3.53
2022-08-05T14:17:55.052Z,4.20
2022-08-05T14:20:29.603Z,3.37
2022-08-05T14:22:57.616Z,4.10
2022-08-05T14:25:27.942Z,3.60
2022-08-05T14:27:56.618Z,3.70
2022-08-05T14:30:28.005Z,3.90
2022-08-05T14:32:56.928Z,4.70
2022-08-05T14:35:37.135Z,5.17
2022-08-05T14:38:06.710Z,4.77
2022-08-05T14:40:56.050Z,4.87
2022-08-05T14:44:02.133Z,5.13
2022-08-05T14:46:12.309Z,7.07
2022-08-05T14:48:39.955Z,4.60
2022-08-05T14:51:08.489Z,4.07
2022-08-05T14:56:24.468Z,4.90
2022-08-05T14:58:53.661Z,4.47
2022-08-05T15:01:26.215Z,4.57
2022-08-05T15:04:11.877Z,4.43
2022-08-05T15:06:40.462Z,5.30
2022-08-05T15:09:10.613Z,4.80
2022-08-05T15:11:52.693Z,5.60
2022-08-05T15:14:34.887Z,5.70
2022-08-05T15:17:44.660Z,5.70
2022-08-05T15:19:57.911Z,5.50
2022-08-05T15:22:26.663Z,5.80
2022-08-05T15:24:58.338Z,5.70
2022-08-05T15:27:26.122Z,5.80
2022-08-05T15:30:00.284Z,5.57
2022-08-05T15:32:29.045Z,5.80
2022-08-05T15:34:56.977Z,5.93
2022-08-05T15:38:34.146Z,5.63
2022-08-05T15:41:00.214Z,6.13
2022-08-05T15:43:12.637Z,5.60
2022-08-05T15:45:47.592Z,5.57
2022-08-05T15:48:15.614Z,5.37
2022-08-05T15:50:43.882Z,5.70
2022-08-05T15:53:13.542Z,6.00
2022-08-05T15:56:04.172Z,6.20
2022-08-05T15:58:35.401Z,6.23
2022-08-05T16:01:16.668Z,6.43
2022-08-05T16:03:48.175Z,7.20
2022-08-05T16:06:19.948Z,6.20
2022-08-05T16:08:50.903Z,6.10
2022-08-05T16:11:21.000Z,5.53
2022-08-05T16:14:08.980Z,5.70
2022-08-05T16:16:37.052Z,5.77
2022-08-05T16:19:04.831Z,5.13
2022-08-05T16:21:59.300Z,5.70
2022-08-05T16:24:39.555Z,5.97
2022-08-05T16:27:10.139Z,6.30
2022-08-05T16:29:47.465Z,5.70
2022-08-05T16:32:28.328Z,6.53
2022-08-05T16:34:57.502Z,6.60
2022-08-05T16:38:15.233Z,6.90
2022-08-05T16:40:28.713Z,6.53
2022-08-05T16:42:58.647Z,5.93
2022-08-05T16:46:04.010Z,8.10
2022-08-05T16:48:25.368Z,7.20
2022-08-05T16:50:54.325Z,8.20
2022-08-05T16:53:32.207Z,8.20
2022-08-05T16:56:11.748Z,7.43
2022-08-05T16:58:41.066Z,7.50
2022-08-05T17:01:10.337Z,6.90
2022-08-05T17:03:38.856Z,6.67
2022-08-05T17:06:07.055Z,7.03
2022-08-05T17:08:52.449Z,7.10
2022-08-05T17:11:23.707Z,7.80
2022-08-05T17:14:00.138Z,5.97
2022-08-05T17:16:36.608Z,5.23
2022-08-05T17:19:07.729Z,5.53
2022-08-05T17:21:39.340Z,6.00
2022-08-05T17:24:19.830Z,4.73
2022-08-05T17:26:57.178Z,4.07
2022-08-05T17:29:33.501Z,3.73
2022-08-05T17:32:11.839Z,3.93
2022-08-05T17:34:44.824Z,3.07
2022-08-05T17:37:41.200Z,2.80
2022-08-05T17:40:04.267Z,2.60
2022-08-05T17:42:33.077Z,1.90
2022-08-05T17:45:18.160Z,2.10
2022-08-05T17:47:54.506Z,1.93
2022-08-05T17:50:28.504Z,1.93
2022-08-05T17:52:59.059Z,2.00
2022-08-05T17:55:34.225Z,2.23
2022-08-05T17:58:02.759Z,2.70
2022-08-05T18:00:32.740Z,2.53
2022-08-05T18:03:00.598Z,3.00
2022-08-05T18:05:28.442Z,1.90
2022-08-05T18:08:03.582Z,2.13
2022-08-05T18:10:33.673Z,1.57
2022-08-05T18:13:02.204Z,2.10
2022-08-05T18:15:41.547Z,2.80
2022-08-05T18:18:14.209Z,3.17
2022-08-05T18:20:46.893Z,4.67
2022-08-05T18:23:15.032Z,4.37
2022-08-05T18:25:45.889Z,3.07
2022-08-05T18:28:16.208Z,2.47
2022-08-05T18:30:45.128Z,2.97
2022-08-05T18:33:14.467Z,3.10
2022-08-05T18:36:00.490Z,3.00
2022-08-05T18:38:31.805Z,2.93
2022-08-05T18:41:55.217Z,2.80
2022-08-05T18:43:48.951Z,3.30
2022-08-05T18:46:19.527Z,3.20
2022-08-05T18:48:51.950Z,2.50
2022-08-05T18:52:04.542Z,2.80
2022-08-05T18:54:25.572Z,3.20
2022-08-05T18:56:53.229Z,2.50
2022-08-05T18:59:42.841Z,2.47
2022-08-05T19:02:11.263Z,2.80
2022-08-05T19:05:02.375Z,2.80
2022-08-05T19:07:46.438Z,2.67
2022-08-05T19:10:14.914Z,3.20
2022-08-05T19:12:43.287Z,5.53
2022-08-05T19:15:25.152Z,11.70
2022-08-05T19:18:09.682Z,4.77
2022-08-05T19:20:41.578Z,6.63
2022-08-05T19:24:04.324Z,6.40
2022-08-05T19:26:01.708Z,2.90
2022-08-05T19:28:30.390Z,12.43
2022-08-05T19:30:57.983Z,5.20
2022-08-05T19:33:35.055Z,3.80
2022-08-05T19:36:06.956Z,2.63
2022-08-05T19:38:35.621Z,4.57
2022-08-05T19:41:06.773Z,3.10
2022-08-05T19:44:05.346Z,4.90
2022-08-05T19:46:30.011Z,3.07
2022-08-05T19:49:01.139Z,2.63
2022-08-05T19:52:05.420Z,2.77
2022-08-05T19:54:25.628Z,2.10
2022-08-05T19:56:59.652Z,1.97
2022-08-05T20:00:02.098Z,2.37
2022-08-05T20:02:17.592Z,2.40
2022-08-05T20:04:46.382Z,2.27
2022-08-05T20:07:45.873Z,3.10
2022-08-05T20:10:11.595Z,18.00
2022-08-05T20:12:48.284Z,40.93
2022-08-05T20:15:23.288Z,21.63
2022-08-05T20:18:10.441Z,47.50
2022-08-05T20:20:56.087Z,60.00
2022-08-05T20:23:39.432Z,28.43
2022-08-05T20:26:16.568Z,56.20
2022-08-05T20:28:45.856Z,70.87
2022-08-05T20:31:16.349Z,28.23
2022-08-05T20:33:45.586Z,44.83
2022-08-05T20:36:16.376Z,44.23
2022-08-05T20:38:54.068Z,18.40
2022-08-05T20:41:43.441Z,120.93
2022-08-05T20:44:18.808Z,70.40
2022-08-05T20:46:58.073Z,94.80
2022-08-05T20:49:26.471Z,134.47
2022-08-05T20:51:54.452Z,85.33
2022-08-05T20:54:25.545Z,76.87
2022-08-05T20:57:14.360Z,94.87
2022-08-05T21:00:10.561Z,32.20
2022-08-05T21:02:30.762Z,7.83
2022-08-05T21:04:58.725Z,12.37
2022-08-05T21:07:45.883Z,12.23
2022-08-05T21:10:19.270Z,4.70
2022-08-05T21:12:58.363Z,4.00
2022-08-05T21:15:35.751Z,4.40
2022-08-05T21:18:03.896Z,3.97
2022-08-05T21:20:33.550Z,3.10
2022-08-05T21:23:03.122Z,2.90
2022-08-05T21:25:33.865Z,2.90
2022-08-05T21:28:02.632Z,2.87
2022-08-05T21:30:31.389Z,3.10
2022-08-05T21:32:59.696Z,2.20
2022-08-05T21:35:55.779Z,2.57
2022-08-05T21:38:17.599Z,2.40
2022-08-05T21:40:46.875Z,2.70
2022-08-05T21:43:17.858Z,2.80
2022-08-05T21:45:57.787Z,21.10
2022-08-05T21:48:31.809Z,32.53
2022-08-05T21:51:00.188Z,47.13
2022-08-05T21:53:28.086Z,34.57
2022-08-05T21:56:09.599Z,121.00
2022-08-05T21:58:48.393Z,80.33
2022-08-05T22:01:26.051Z,52.30
2022-08-05T22:03:54.054Z,97.53
2022-08-05T22:06:34.734Z,135.30
2022-08-05T22:09:13.928Z,142.90
2022-08-05T22:11:46.750Z,27.30
2022-08-05T22:14:35.560Z,126.70
2022-08-05T22:17:07.033Z,248.10
2022-08-05T22:20:00.696Z,115.63
2022-08-05T22:22:27.441Z,90.80
2022-08-05T22:25:21.374Z,43.17
2022-08-05T22:28:11.185Z,155.20
2022-08-05T22:30:43.961Z,61.47
2022-08-05T22:33:56.570Z,101.30
2022-08-05T22:36:09.100Z,63.07
2022-08-05T22:38:37.818Z,19.77
2022-08-05T22:41:10.686Z,21.67
2022-08-05T22:43:41.204Z,14.73
2022-08-05T22:46:13.343Z,4.20
2022-08-05T22:48:43.839Z,8.37
2022-08-05T22:51:15.871Z,4.30
2022-08-05T22:53:55.133Z,3.00
2022-08-05T22:56:30.362Z,3.27
2022-08-05T22:59:03.189Z,3.10
2022-08-05T23:02:03.887Z,2.50
2022-08-05T23:04:33.555Z,2.60
2022-08-05T23:07:01.103Z,2.37
2022-08-05T23:09:57.579Z,2.53
2022-08-05T23:12:18.127Z,2.43
2022-08-05T23:14:47.227Z,2.77
2022-08-05T23:17:34.092Z,2.43
2022-08-05T23:20:05.960Z,1.70
2022-08-05T23:22:43.409Z,1.90
2022-08-05T23:25:17.169Z,1.70
2022-08-05T23:28:03.365Z,1.47
2022-08-05T23:30:40.437Z,1.73
2022-08-05T23:33:22.629Z,1.67
2022-08-05T23:36:00.591Z,2.07
2022-08-05T23:41:14.791Z,1.97
2022-08-05T23:44:04.647Z,1.70
2022-08-05T23:46:31.739Z,1.50
2022-08-05T23:49:02.129Z,1.40
2022-08-05T23:52:01.495Z,1.83
2022-08-05T23:54:34.203Z,1.90
2022-08-05T23:57:05.159Z,1.50
